createdAt,value
2023-03-17T00:00:15.603Z,23.38
2023-03-17T00:01:15.692Z,23.41
2023-03-17T00:02:15.746Z,23.37
2023-03-17T00:03:15.793Z,23.38
2023-03-17T00:04:15.788Z,23.37
2023-03-17T00:05:15.853Z,23.33
2023-03-17T00:06:15.890Z,23.25
2023-03-17T00:07:15.933Z,23.28
2023-03-17T00:08:15.961Z,23.24
2023-03-17T00:09:15.991Z,23.32
2023-03-17T00:10:16.008Z,23.27
2023-03-17T00:11:16.087Z,23.27
2023-03-17T00:12:16.109Z,23.27
2023-03-17T00:13:16.169Z,23.25
2023-03-17T00:14:16.264Z,23.27
2023-03-17T00:15:16.303Z,23.24
2023-03-17T00:16:16.361Z,23.24
2023-03-17T00:17:16.339Z,23.24
2023-03-17T00:18:16.408Z,23.16
2023-03-17T00:19:16.446Z,23.28
2023-03-17T00:20:16.529Z,23.21
2023-03-17T00:21:16.537Z,23.28
2023-03-17T00:22:16.633Z,23.30
2023-03-17T00:23:16.659Z,23.25
2023-03-17T00:24:16.658Z,23.21
2023-03-17T00:25:16.715Z,23.18
2023-03-17T00:26:16.762Z,23.20
2023-03-17T00:27:16.756Z,23.17
2023-03-17T00:28:16.772Z,23.19
2023-03-17T00:29:16.785Z,23.13
2023-03-17T00:30:16.790Z,23.19
2023-03-17T00:31:17.096Z,23.20
2023-03-17T00:32:16.942Z,23.16
2023-03-17T00:33:16.952Z,23.18
2023-03-17T00:34:17.004Z,23.18
2023-03-17T00:35:17.030Z,23.17
2023-03-17T00:36:17.052Z,23.18
2023-03-17T00:37:17.079Z,23.25
2023-03-17T00:38:17.107Z,23.25
2023-03-17T00:39:17.084Z,23.22
2023-03-17T00:40:17.129Z,23.13
2023-03-17T00:41:17.135Z,23.11
2023-03-17T00:42:17.193Z,23.14
2023-03-17T00:43:17.254Z,23.16
2023-03-17T00:44:17.276Z,23.11
2023-03-17T00:45:17.362Z,23.05
2023-03-17T00:46:17.401Z,23.17
2023-03-17T00:47:17.422Z,23.09
2023-03-17T00:48:17.389Z,23.07
2023-03-17T00:49:18.464Z,23.07
2023-03-17T00:50:17.456Z,23.01
2023-03-17T00:51:17.425Z,23.05
2023-03-17T01:06:18.480Z,22.96
2023-03-17T01:11:18.556Z,22.96
2023-03-17T01:24:18.471Z,22.87
2023-03-17T01:25:18.497Z,22.89
2023-03-17T01:26:18.452Z,22.83
2023-03-17T01:27:18.460Z,22.85
2023-03-17T01:28:18.588Z,22.84
2023-03-17T01:29:18.561Z,22.86
2023-03-17T01:30:18.565Z,22.87
2023-03-17T01:31:18.664Z,22.86
2023-03-17T01:32:18.613Z,22.84
2023-03-17T01:33:18.630Z,22.78
2023-03-17T01:34:18.703Z,22.84
2023-03-17T01:35:18.767Z,22.80
2023-03-17T01:36:18.829Z,22.83
2023-03-17T01:37:18.889Z,22.82
2023-03-17T01:38:19.001Z,22.89
2023-03-17T01:39:18.972Z,22.90
2023-03-17T01:40:19.000Z,22.91
2023-03-17T01:41:19.030Z,22.85
2023-03-17T01:42:19.088Z,22.81
2023-03-17T01:43:19.134Z,22.78
2023-03-17T01:44:19.192Z,22.80
2023-03-17T01:45:19.254Z,22.83
2023-03-17T01:46:19.288Z,22.78
2023-03-17T01:47:19.306Z,22.81
2023-03-17T01:48:19.348Z,22.77
2023-03-17T01:49:19.473Z,22.71
2023-03-17T01:50:19.503Z,22.74
2023-03-17T01:51:19.563Z,22.71
2023-03-17T01:52:19.592Z,22.65
2023-03-17T01:53:19.662Z,22.70
2023-03-17T01:54:19.726Z,22.64
2023-03-17T01:55:19.782Z,22.60
2023-03-17T01:56:19.849Z,22.70
2023-03-17T01:57:19.889Z,22.55
2023-03-17T01:58:19.948Z,22.51
2023-03-17T01:59:20.016Z,22.52
2023-03-17T02:00:20.070Z,22.48
2023-03-17T02:01:20.105Z,22.48
2023-03-17T02:02:20.168Z,22.42
2023-03-17T02:03:20.253Z,22.34
2023-03-17T02:04:20.401Z,22.34
2023-03-17T02:05:20.362Z,22.32
2023-03-17T02:06:20.412Z,22.38
2023-03-17T02:07:20.496Z,22.35
2023-03-17T02:08:20.546Z,22.38
2023-03-17T02:09:20.586Z,22.28
2023-03-17T02:10:20.649Z,22.26
2023-03-17T02:11:20.716Z,22.29
2023-03-17T02:12:20.757Z,22.20
2023-03-17T02:13:20.836Z,22.20
2023-03-17T02:14:20.869Z,22.19
2023-03-17T02:15:20.937Z,22.23
2023-03-17T02:16:20.973Z,22.18
2023-03-17T02:17:20.996Z,22.10
2023-03-17T02:18:21.059Z,22.13
2023-03-17T02:19:21.087Z,22.08
2023-03-17T02:20:21.114Z,22.08
2023-03-17T02:21:21.134Z,22.06
2023-03-17T02:22:21.146Z,22.06
2023-03-17T02:23:21.195Z,22.04
2023-03-17T02:24:21.250Z,22.06
2023-03-17T02:25:21.268Z,22.00
2023-03-17T02:26:21.294Z,21.97
2023-03-17T02:27:21.335Z,21.97
2023-03-17T02:28:21.366Z,21.97
2023-03-17T02:29:21.388Z,21.96
2023-03-17T02:30:21.434Z,21.96
2023-03-17T02:31:21.493Z,21.93
2023-03-17T02:32:21.526Z,21.99
2023-03-17T02:33:21.555Z,21.95
2023-03-17T02:34:21.547Z,21.87
2023-03-17T02:35:21.566Z,21.88
2023-03-17T02:36:21.638Z,21.91
2023-03-17T02:37:21.620Z,21.91
2023-03-17T02:38:21.668Z,21.95
2023-03-17T02:39:21.688Z,21.90
2023-03-17T02:40:21.707Z,21.90
2023-03-17T02:41:21.728Z,21.84
2023-03-17T02:42:21.772Z,21.87
2023-03-17T02:43:21.747Z,21.82
2023-03-17T02:44:21.801Z,21.87
2023-03-17T02:45:21.796Z,21.87
2023-03-17T02:46:21.926Z,21.85
2023-03-17T02:47:21.885Z,21.95
2023-03-17T02:48:21.899Z,21.82
2023-03-17T02:49:21.907Z,21.84
2023-03-17T02:50:21.912Z,21.78
2023-03-17T02:51:21.976Z,21.87
2023-03-17T02:52:21.906Z,21.81
2023-03-17T02:53:21.971Z,21.78
2023-03-17T02:54:21.995Z,21.81
2023-03-17T02:55:22.003Z,21.86
2023-03-17T02:56:21.993Z,21.81
2023-03-17T02:57:22.004Z,21.74
2023-03-17T02:58:22.012Z,21.69
2023-03-17T02:59:22.010Z,21.74
2023-03-17T03:00:22.051Z,21.77
2023-03-17T03:01:22.030Z,21.71
2023-03-17T03:02:22.066Z,21.75
2023-03-17T03:03:22.032Z,21.74
2023-03-17T03:04:22.044Z,21.75
2023-03-17T03:05:22.073Z,21.69
2023-03-17T03:06:22.063Z,21.69
2023-03-17T03:07:22.085Z,21.69
2023-03-17T03:08:22.093Z,21.74
2023-03-17T03:09:22.079Z,21.72
2023-03-17T03:10:22.083Z,21.66
2023-03-17T03:11:22.094Z,21.69
2023-03-17T03:12:22.123Z,21.69
2023-03-17T03:13:22.106Z,21.69
2023-03-17T03:14:22.112Z,21.68
2023-03-17T03:15:22.130Z,21.69
2023-03-17T03:16:22.168Z,21.65
2023-03-17T03:17:22.157Z,21.68
2023-03-17T03:18:22.138Z,21.68
2023-03-17T03:19:22.168Z,21.62
2023-03-17T03:20:22.191Z,21.58
2023-03-17T03:21:22.182Z,21.58
2023-03-17T03:22:22.171Z,21.59
2023-03-17T03:23:22.170Z,21.61
2023-03-17T03:24:22.166Z,21.59
2023-03-17T03:25:22.188Z,21.58
2023-03-17T03:26:22.187Z,21.61
2023-03-17T03:27:22.168Z,21.56
2023-03-17T03:28:22.171Z,21.58
2023-03-17T03:29:22.187Z,21.56
2023-03-17T03:30:22.193Z,21.55
2023-03-17T03:31:22.193Z,21.59
2023-03-17T03:32:22.188Z,21.62
2023-03-17T03:33:22.184Z,21.52
2023-03-17T03:34:22.188Z,21.56
2023-03-17T03:35:22.181Z,21.56
2023-03-17T03:36:22.184Z,21.57
2023-03-17T03:37:22.228Z,21.52
2023-03-17T03:38:22.191Z,21.50
2023-03-17T03:39:22.205Z,21.55
2023-03-17T03:40:22.168Z,21.49
2023-03-17T03:41:22.193Z,21.52
2023-03-17T03:42:22.208Z,21.51
2023-03-17T03:43:23.872Z,21.49
2023-03-17T03:44:22.205Z,21.49
2023-03-17T03:45:23.096Z,21.43
2023-03-17T03:46:22.223Z,21.45
2023-03-17T03:47:22.203Z,21.47
2023-03-17T03:48:22.215Z,21.49
2023-03-17T03:49:22.173Z,21.48
2023-03-17T03:50:22.208Z,21.46
2023-03-17T03:51:22.244Z,21.45
2023-03-17T03:52:22.189Z,21.43
2023-03-17T03:53:22.202Z,21.43
2023-03-17T03:54:22.190Z,21.40
2023-03-17T03:55:22.212Z,21.40
2023-03-17T03:56:22.243Z,21.37
2023-03-17T03:57:22.221Z,21.38
2023-03-17T03:58:22.199Z,21.42
2023-03-17T03:59:22.280Z,21.36
2023-03-17T04:00:22.311Z,21.42
2023-03-17T04:01:22.281Z,21.48
2023-03-17T04:02:22.342Z,21.48
2023-03-17T04:03:22.261Z,21.43
2023-03-17T04:04:22.319Z,21.43
2023-03-17T04:05:22.306Z,21.48
2023-03-17T04:06:22.355Z,21.40
2023-03-17T04:07:22.327Z,21.48
2023-03-17T04:08:22.337Z,21.39
2023-03-17T04:09:22.342Z,21.42
2023-03-17T04:10:22.394Z,21.34
2023-03-17T04:11:22.340Z,21.39
2023-03-17T04:12:22.374Z,21.37
2023-03-17T04:13:22.377Z,21.35
2023-03-17T04:14:22.383Z,21.40
2023-03-17T04:15:22.348Z,21.32
2023-03-17T04:16:22.467Z,21.32
2023-03-17T04:17:22.349Z,21.37
2023-03-17T04:18:22.344Z,21.42
2023-03-17T04:19:22.413Z,21.43
2023-03-17T04:20:22.421Z,21.40
2023-03-17T04:21:22.342Z,21.34
2023-03-17T04:22:22.386Z,21.43
2023-03-17T04:23:22.350Z,21.40
2023-03-17T04:24:22.379Z,21.35
2023-03-17T04:25:22.342Z,21.40
2023-03-17T04:26:22.356Z,21.40
2023-03-17T04:27:22.330Z,21.35
2023-03-17T04:28:22.331Z,21.35
2023-03-17T04:29:22.328Z,21.38
2023-03-17T04:30:22.353Z,21.44
2023-03-17T04:31:22.379Z,21.47
2023-03-17T04:32:22.359Z,21.41
2023-03-17T04:33:22.365Z,21.47
2023-03-17T04:34:22.355Z,21.42
2023-03-17T04:35:22.375Z,21.42
2023-03-17T04:36:22.350Z,21.48
2023-03-17T04:37:22.383Z,21.46
2023-03-17T04:38:22.342Z,21.50
2023-03-17T04:39:22.395Z,21.51
2023-03-17T04:40:22.348Z,21.46
2023-03-17T04:41:22.388Z,21.44
2023-03-17T04:42:22.364Z,21.53
2023-03-17T04:43:22.377Z,21.52
2023-03-17T04:44:22.391Z,21.42
2023-03-17T04:45:22.337Z,21.50
2023-03-17T04:46:22.380Z,21.54
2023-03-17T04:47:22.356Z,21.53
2023-03-17T04:48:22.407Z,21.47
2023-03-17T04:49:22.418Z,21.52
2023-03-17T04:50:22.426Z,21.54
2023-03-17T04:51:22.425Z,21.47
2023-03-17T04:52:22.428Z,21.54
2023-03-17T04:53:22.440Z,21.50
2023-03-17T04:54:22.461Z,21.53
2023-03-17T04:55:22.508Z,21.50
2023-03-17T04:56:22.501Z,21.53
2023-03-17T04:57:22.521Z,21.57
2023-03-17T04:58:30.546Z,21.57
2023-03-17T04:59:23.540Z,21.53
2023-03-17T05:00:22.507Z,21.54
2023-03-17T05:01:22.528Z,21.56
2023-03-17T05:02:22.539Z,21.48
2023-03-17T05:03:27.193Z,21.59
2023-03-17T05:04:31.165Z,21.53
2023-03-17T05:05:23.456Z,21.51
2023-03-17T05:06:22.471Z,21.55
2023-03-17T05:07:22.457Z,21.52
2023-03-17T05:08:22.480Z,21.53
2023-03-17T05:09:22.457Z,21.52
2023-03-17T05:10:22.437Z,21.53
2023-03-17T05:11:22.435Z,21.57
2023-03-17T05:12:22.480Z,21.55
2023-03-17T05:13:22.417Z,21.54
2023-03-17T05:14:22.398Z,21.46
2023-03-17T05:15:22.415Z,21.58
2023-03-17T05:16:22.421Z,21.57
2023-03-17T05:17:22.397Z,21.51
2023-03-17T05:18:22.408Z,21.60
2023-03-17T05:19:22.382Z,21.55
2023-03-17T05:20:22.379Z,21.54
2023-03-17T05:21:22.414Z,21.61
2023-03-17T05:22:22.362Z,21.55
2023-03-17T05:23:22.379Z,21.52
2023-03-17T05:24:22.359Z,21.57
2023-03-17T05:25:22.342Z,21.52
2023-03-17T05:26:22.336Z,21.49
2023-03-17T05:27:22.330Z,21.55
2023-03-17T05:28:22.343Z,21.51
2023-03-17T05:29:22.316Z,21.48
2023-03-17T05:30:22.327Z,21.57
2023-03-17T05:31:22.408Z,21.51
2023-03-17T05:32:22.311Z,21.49
2023-03-17T05:33:22.274Z,21.55
2023-03-17T05:34:22.298Z,21.58
2023-03-17T05:35:22.299Z,21.45
2023-03-17T05:36:22.263Z,21.49
2023-03-17T05:37:22.267Z,21.51
2023-03-17T05:38:22.276Z,21.39
2023-03-17T05:39:22.288Z,21.46
2023-03-17T05:40:23.849Z,21.51
2023-03-17T05:41:22.271Z,21.41
2023-03-17T05:42:22.263Z,21.48
2023-03-17T05:43:22.216Z,21.45
2023-03-17T05:44:22.246Z,21.43
2023-03-17T05:45:22.220Z,21.46
2023-03-17T05:46:22.223Z,21.43
2023-03-17T05:47:22.186Z,21.48
2023-03-17T05:48:22.214Z,21.45
2023-03-17T05:49:22.216Z,21.42
2023-03-17T05:50:22.169Z,21.48
2023-03-17T05:51:22.212Z,21.51
2023-03-17T05:52:22.174Z,21.45
2023-03-17T05:53:22.172Z,21.43
2023-03-17T05:54:22.180Z,21.41
2023-03-17T05:55:22.141Z,21.46
2023-03-17T05:56:22.140Z,21.41
2023-03-17T05:57:22.160Z,21.51
2023-03-17T05:58:22.162Z,21.43
2023-03-17T05:59:22.147Z,21.43
2023-03-17T06:00:29.580Z,21.45
2023-03-17T06:01:22.104Z,21.47
2023-03-17T06:02:22.162Z,21.42
2023-03-17T06:03:22.128Z,21.43
2023-03-17T06:04:22.088Z,21.39
2023-03-17T06:05:22.092Z,21.34
2023-03-17T06:06:22.085Z,21.36
2023-03-17T06:07:22.092Z,21.31
2023-03-17T06:08:22.070Z,21.28
2023-03-17T06:09:22.095Z,21.39
2023-03-17T06:10:22.075Z,21.41
2023-03-17T06:11:22.054Z,21.37
2023-03-17T06:12:22.021Z,21.28
2023-03-17T06:13:22.034Z,21.26
2023-03-17T06:14:22.041Z,21.33
2023-03-17T06:15:22.019Z,21.25
2023-03-17T06:16:22.065Z,21.27
2023-03-17T06:17:22.002Z,21.27
2023-03-17T06:18:21.996Z,21.25
2023-03-17T06:19:22.016Z,21.25
2023-03-17T06:20:21.985Z,21.30
2023-03-17T06:21:22.041Z,21.27
2023-03-17T06:22:22.031Z,21.22
2023-03-17T06:23:21.999Z,21.25
2023-03-17T06:24:21.953Z,21.18
2023-03-17T06:25:21.968Z,21.16
2023-03-17T06:26:21.993Z,21.21
2023-03-17T06:27:21.992Z,21.18
2023-03-17T06:28:22.679Z,21.18
2023-03-17T06:29:22.065Z,21.12
2023-03-17T06:30:22.081Z,21.24
2023-03-17T06:31:22.209Z,21.12
2023-03-17T06:32:22.155Z,21.09
2023-03-17T06:33:22.194Z,21.20
2023-03-17T06:34:22.193Z,21.47
2023-03-17T06:35:22.275Z,21.55
2023-03-17T06:36:22.327Z,21.50
2023-03-17T06:37:22.739Z,22.25
2023-03-17T06:38:22.378Z,44.20
2023-03-17T06:39:22.431Z,26.22
2023-03-17T06:40:22.487Z,21.90
2023-03-17T06:41:22.553Z,21.46
2023-03-17T06:42:22.687Z,21.41
2023-03-17T06:43:22.555Z,24.40
2023-03-17T06:44:22.622Z,22.64
2023-03-17T06:45:30.019Z,22.27
2023-03-17T06:46:22.645Z,23.26
2023-03-17T06:47:25.803Z,22.58
2023-03-17T06:48:22.622Z,23.24
2023-03-17T06:49:22.623Z,23.06
2023-03-17T06:50:22.581Z,24.13
2023-03-17T06:51:22.665Z,24.31
2023-03-17T06:52:22.558Z,24.58
2023-03-17T06:53:22.588Z,25.15
2023-03-17T06:54:22.583Z,24.66
2023-03-17T06:55:22.585Z,24.58
2023-03-17T06:56:29.869Z,24.51
2023-03-17T06:57:23.529Z,24.98
2023-03-17T06:58:22.541Z,24.53
2023-03-17T06:59:23.051Z,25.49
2023-03-17T07:00:22.547Z,25.09
2023-03-17T07:01:22.540Z,24.88
2023-03-17T07:02:22.776Z,26.15
2023-03-17T07:03:22.511Z,25.74
2023-03-17T07:04:22.618Z,25.47
2023-03-17T07:05:22.473Z,25.45
2023-03-17T07:06:22.562Z,25.40
2023-03-17T07:07:22.608Z,26.07
2023-03-17T07:08:22.651Z,26.89
2023-03-17T07:09:22.616Z,26.39
2023-03-17T07:10:22.704Z,26.87
2023-03-17T07:11:22.727Z,27.30
2023-03-17T07:12:22.728Z,25.81
2023-03-17T07:13:22.805Z,26.09
2023-03-17T07:14:22.811Z,27.06
2023-03-17T07:15:22.788Z,26.47
2023-03-17T07:16:22.839Z,26.46
2023-03-17T07:17:22.845Z,28.99
2023-03-17T07:18:22.870Z,27.35
2023-03-17T07:19:22.865Z,26.12
2023-03-17T07:20:22.940Z,27.00
2023-03-17T07:21:22.889Z,26.95
2023-03-17T07:22:22.933Z,26.79
2023-03-17T07:23:23.176Z,26.93
2023-03-17T07:24:22.988Z,27.01
2023-03-17T07:25:22.917Z,27.17
2023-03-17T07:26:22.918Z,27.55
2023-03-17T07:27:23.257Z,27.34
2023-03-17T07:28:22.952Z,27.71
2023-03-17T07:29:22.984Z,27.68
2023-03-17T07:30:22.940Z,27.98
2023-03-17T07:31:23.054Z,28.34
2023-03-17T07:32:22.951Z,27.70
2023-03-17T07:33:23.041Z,27.69
2023-03-17T07:34:23.118Z,28.29
2023-03-17T07:35:23.198Z,28.16
2023-03-17T07:36:23.211Z,28.31
2023-03-17T07:37:23.274Z,28.11
2023-03-17T07:38:23.284Z,27.90
2023-03-17T07:39:23.310Z,28.03
2023-03-17T07:40:23.341Z,28.06
2023-03-17T07:41:23.326Z,28.92
2023-03-17T07:42:23.453Z,28.18
2023-03-17T07:43:23.409Z,28.67
2023-03-17T07:44:23.428Z,29.42
2023-03-17T07:45:23.464Z,27.01
2023-03-17T07:46:23.545Z,26.60
2023-03-17T07:47:23.489Z,25.65
2023-03-17T07:48:23.495Z,24.62
2023-03-17T07:49:40.049Z,23.95
2023-03-17T07:50:24.536Z,23.13
2023-03-17T07:51:23.518Z,23.23
2023-03-17T07:52:23.572Z,23.46
2023-03-17T07:53:23.523Z,23.94
2023-03-17T07:54:23.500Z,24.31
2023-03-17T07:55:23.500Z,24.69
2023-03-17T07:56:23.551Z,24.67
2023-03-17T07:57:23.657Z,25.30
2023-03-17T07:58:23.505Z,25.31
2023-03-17T07:59:23.448Z,24.80
2023-03-17T08:00:23.463Z,24.39
2023-03-17T08:01:23.463Z,24.66
2023-03-17T08:02:23.529Z,24.15
2023-03-17T08:03:23.470Z,25.13
2023-03-17T08:04:23.441Z,24.49
2023-03-17T08:05:23.442Z,24.12
2023-03-17T08:06:23.464Z,24.03
2023-03-17T08:07:23.422Z,23.54
2023-03-17T08:08:23.503Z,23.24
2023-03-17T08:09:24.289Z,23.42
2023-03-17T08:10:23.478Z,23.45
2023-03-17T08:11:23.554Z,22.77
2023-03-17T08:12:23.494Z,23.63
2023-03-17T08:13:23.456Z,24.22
2023-03-17T08:14:23.423Z,24.58
2023-03-17T08:15:23.491Z,24.66
2023-03-17T08:16:23.610Z,24.67
2023-03-17T08:17:23.677Z,24.72
2023-03-17T08:18:23.739Z,24.99
2023-03-17T08:19:23.919Z,24.99
2023-03-17T08:20:23.877Z,25.28
2023-03-17T08:21:23.862Z,25.21
2023-03-17T08:22:23.941Z,25.21
2023-03-17T08:23:24.257Z,25.06
2023-03-17T08:24:24.046Z,24.93
2023-03-17T08:25:24.063Z,24.86
2023-03-17T08:26:24.135Z,24.66
2023-03-17T08:27:24.229Z,24.66
2023-03-17T08:28:24.227Z,25.26
2023-03-17T08:29:24.337Z,25.06
2023-03-17T08:30:24.361Z,25.20
2023-03-17T08:31:24.480Z,25.20
2023-03-17T08:32:24.451Z,23.94
2023-03-17T08:33:24.503Z,24.59
2023-03-17T08:34:24.522Z,24.49
2023-03-17T08:35:24.575Z,24.06
2023-03-17T08:36:24.630Z,22.48
2023-03-17T08:37:24.666Z,22.60
2023-03-17T08:38:24.741Z,22.47
2023-03-17T08:39:24.808Z,23.73
2023-03-17T08:40:24.857Z,23.83
2023-03-17T08:41:24.945Z,24.21
2023-03-17T08:42:24.971Z,23.34
2023-03-17T08:43:25.044Z,25.29
2023-03-17T08:44:25.044Z,25.65
2023-03-17T08:45:25.102Z,26.03
2023-03-17T08:46:25.163Z,25.99
2023-03-17T08:47:25.177Z,24.61
2023-03-17T08:48:25.296Z,23.57
2023-03-17T08:49:25.231Z,23.61
2023-03-17T08:50:25.335Z,23.85
2023-03-17T08:51:25.272Z,23.54
2023-03-17T08:52:25.338Z,23.49
2023-03-17T08:53:25.416Z,23.78
2023-03-17T08:54:25.471Z,22.54
2023-03-17T08:55:25.478Z,21.18
2023-03-17T08:56:25.484Z,21.78
2023-03-17T08:57:25.497Z,21.50
2023-03-17T08:58:25.512Z,21.16
2023-03-17T08:59:25.571Z,21.17
2023-03-17T09:00:25.537Z,20.59
2023-03-17T09:01:25.651Z,20.47
2023-03-17T09:02:25.742Z,19.72
2023-03-17T09:03:25.710Z,20.53
2023-03-17T09:04:25.772Z,19.73
2023-03-17T09:05:25.818Z,19.68
2023-03-17T09:06:25.893Z,19.83
2023-03-17T09:07:25.936Z,19.58
2023-03-17T09:08:25.998Z,19.13
2023-03-17T09:09:26.070Z,19.49
2023-03-17T09:10:26.147Z,19.60
2023-03-17T09:11:26.178Z,19.16
2023-03-17T09:12:26.263Z,19.00
2023-03-17T09:13:26.286Z,18.61
2023-03-17T09:14:26.344Z,18.58
2023-03-17T09:15:26.354Z,18.48
2023-03-17T09:16:26.367Z,18.33
2023-03-17T09:17:26.425Z,18.94
2023-03-17T09:18:26.760Z,18.50
2023-03-17T09:19:26.540Z,18.29
2023-03-17T09:20:26.521Z,18.17
2023-03-17T09:21:26.572Z,18.43
2023-03-17T09:22:26.652Z,18.38
2023-03-17T09:23:26.735Z,19.19
2023-03-17T09:24:26.677Z,18.21
2023-03-17T09:25:26.690Z,18.20
2023-03-17T09:26:26.777Z,18.11
2023-03-17T09:27:26.843Z,18.05
2023-03-17T09:28:26.891Z,18.12
2023-03-17T09:29:26.903Z,17.98
2023-03-17T09:30:27.020Z,18.01
2023-03-17T09:31:27.064Z,18.29
2023-03-17T09:32:27.112Z,17.72
2023-03-17T09:33:27.323Z,17.59
2023-03-17T09:34:27.171Z,17.45
2023-03-17T09:35:27.253Z,17.60
2023-03-17T09:36:27.297Z,17.58
2023-03-17T09:37:27.329Z,17.58
2023-03-17T09:38:27.955Z,17.37
2023-03-17T09:39:27.526Z,17.35
2023-03-17T09:40:28.534Z,17.20
2023-03-17T09:41:27.638Z,17.05
2023-03-17T09:42:27.547Z,17.01
2023-03-17T09:43:27.620Z,17.02
2023-03-17T09:44:27.563Z,17.26
2023-03-17T09:45:27.562Z,17.20
2023-03-17T09:46:27.618Z,17.14
2023-03-17T09:47:27.568Z,17.14
2023-03-17T09:48:27.632Z,17.12
2023-03-17T09:49:27.656Z,17.03
2023-03-17T09:50:27.589Z,18.26
2023-03-17T09:51:27.589Z,19.56
2023-03-17T09:52:27.609Z,19.67
2023-03-17T09:53:27.636Z,18.60
2023-03-17T09:54:27.804Z,19.83
2023-03-17T09:55:27.731Z,18.74
2023-03-17T09:56:27.777Z,18.65
2023-03-17T09:57:27.865Z,18.48
2023-03-17T09:58:27.895Z,18.98
2023-03-17T09:59:27.970Z,18.98
2023-03-17T10:00:28.043Z,18.67
2023-03-17T10:01:28.107Z,18.69
2023-03-17T10:02:28.157Z,18.61
2023-03-17T10:03:28.202Z,19.47
2023-03-17T10:04:29.192Z,18.78
2023-03-17T10:05:28.456Z,19.78
2023-03-17T10:06:28.369Z,18.93
2023-03-17T10:07:28.439Z,19.06
2023-03-17T10:08:31.631Z,19.13
2023-03-17T10:09:28.568Z,18.80
2023-03-17T10:10:28.916Z,18.48
2023-03-17T10:11:28.460Z,19.17
2023-03-17T10:12:28.419Z,18.34
2023-03-17T10:13:28.439Z,19.12
2023-03-17T10:14:28.408Z,18.55
2023-03-17T10:15:28.410Z,17.97
2023-03-17T10:16:28.449Z,18.82
2023-03-17T10:17:28.403Z,18.32
2023-03-17T10:18:28.425Z,18.53
2023-03-17T10:19:28.415Z,18.70
2023-03-17T10:20:28.373Z,18.83
2023-03-17T10:21:28.366Z,18.18
2023-03-17T10:22:28.339Z,18.18
2023-03-17T10:23:28.350Z,18.08
2023-03-17T10:24:28.362Z,18.09
2023-03-17T10:25:28.354Z,17.97
2023-03-17T10:26:28.363Z,18.29
2023-03-17T10:27:28.326Z,18.23
2023-03-17T10:28:28.337Z,18.93
2023-03-17T10:29:28.298Z,18.73
2023-03-17T10:30:28.302Z,19.31
2023-03-17T10:31:28.440Z,19.46
2023-03-17T10:32:28.320Z,18.85
2023-03-17T10:33:28.295Z,18.56
2023-03-17T10:34:28.269Z,18.69
2023-03-17T10:35:28.316Z,19.05
2023-03-17T10:36:28.264Z,19.27
2023-03-17T10:37:28.236Z,19.62
2023-03-17T10:38:28.262Z,20.07
2023-03-17T10:39:29.300Z,19.21
2023-03-17T10:40:28.422Z,18.86
2023-03-17T10:41:28.213Z,19.41
2023-03-17T10:42:28.283Z,19.71
2023-03-17T10:43:28.288Z,19.14
2023-03-17T10:44:28.328Z,19.31
2023-03-17T10:45:28.268Z,19.67
2023-03-17T10:46:28.260Z,19.95
2023-03-17T10:47:28.306Z,20.32
2023-03-17T10:48:28.303Z,20.41
2023-03-17T10:49:28.836Z,20.08
2023-03-17T10:50:28.489Z,20.66
2023-03-17T10:51:28.501Z,20.46
2023-03-17T10:52:28.505Z,20.74
2023-03-17T10:53:28.673Z,21.33
2023-03-17T10:54:28.816Z,21.09
2023-03-17T10:55:28.590Z,21.33
2023-03-17T10:56:28.647Z,21.18
2023-03-17T10:57:28.693Z,21.91
2023-03-17T10:58:28.756Z,22.16
2023-03-17T10:59:28.822Z,21.54
2023-03-17T11:00:29.120Z,21.19
2023-03-17T11:01:28.918Z,21.42
2023-03-17T11:02:28.990Z,21.56
2023-03-17T11:03:29.121Z,21.34
2023-03-17T11:04:29.111Z,20.56
2023-03-17T11:05:29.179Z,20.05
2023-03-17T11:06:29.163Z,19.97
2023-03-17T11:07:29.247Z,21.60
2023-03-17T11:08:29.294Z,20.93
2023-03-17T11:09:29.387Z,21.18
2023-03-17T11:10:29.627Z,21.53
2023-03-17T11:11:29.402Z,21.74
2023-03-17T11:12:29.470Z,21.68
2023-03-17T11:13:29.476Z,21.75
2023-03-17T11:14:29.846Z,21.83
2023-03-17T11:15:29.836Z,21.69
2023-03-17T11:16:29.616Z,21.53
2023-03-17T11:17:29.564Z,21.45
2023-03-17T11:18:31.358Z,21.44
2023-03-17T11:19:29.591Z,21.38
2023-03-17T11:20:29.899Z,21.37
2023-03-17T11:21:29.626Z,21.34
2023-03-17T11:22:29.657Z,21.26
2023-03-17T11:23:29.658Z,21.21
2023-03-17T11:24:30.859Z,21.25
2023-03-17T11:25:29.702Z,21.20
2023-03-17T11:26:29.740Z,21.15
2023-03-17T11:27:29.712Z,21.12
2023-03-17T11:28:29.713Z,21.14
2023-03-17T11:29:29.747Z,21.15
2023-03-17T11:30:30.095Z,21.14
2023-03-17T11:31:29.848Z,21.12
2023-03-17T11:32:29.884Z,21.11
2023-03-17T11:33:29.812Z,21.09
2023-03-17T11:34:29.827Z,21.09
2023-03-17T11:35:30.390Z,21.08
2023-03-17T11:36:29.876Z,21.09
2023-03-17T11:37:29.907Z,21.05
2023-03-17T11:38:29.912Z,21.09
2023-03-17T11:39:29.977Z,21.04
2023-03-17T11:40:30.568Z,21.06
2023-03-17T11:41:29.985Z,21.11
2023-03-17T11:42:29.967Z,21.12
2023-03-17T11:43:29.995Z,21.08
2023-03-17T11:44:30.032Z,21.02
2023-03-17T11:45:30.031Z,21.04
2023-03-17T11:46:30.094Z,21.08
2023-03-17T11:47:30.091Z,21.08
2023-03-17T11:48:30.066Z,21.06
2023-03-17T11:49:30.124Z,21.17
2023-03-17T11:50:30.602Z,21.17
2023-03-17T11:51:30.193Z,21.13
2023-03-17T11:52:30.151Z,21.21
2023-03-17T11:53:30.208Z,21.14
2023-03-17T11:54:30.213Z,21.16
2023-03-17T11:55:30.209Z,21.17
2023-03-17T11:56:30.219Z,21.09
2023-03-17T11:57:30.295Z,20.94
2023-03-17T11:58:30.240Z,20.93
2023-03-17T11:59:30.303Z,20.89
2023-03-17T12:00:31.111Z,20.90
2023-03-17T12:01:30.363Z,20.93
2023-03-17T12:02:30.437Z,20.75
2023-03-17T12:03:30.465Z,20.72
2023-03-17T12:04:30.596Z,20.40
2023-03-17T12:05:30.555Z,20.35
2023-03-17T12:06:30.557Z,20.23
2023-03-17T12:07:30.624Z,20.09
2023-03-17T12:08:30.663Z,19.97
2023-03-17T12:09:30.720Z,19.92
2023-03-17T12:10:30.849Z,19.93
2023-03-17T12:11:30.744Z,20.16
2023-03-17T12:12:30.808Z,20.14
2023-03-17T12:13:30.810Z,20.27
2023-03-17T12:14:30.858Z,20.31
2023-03-17T12:15:31.439Z,20.40
2023-03-17T12:16:30.877Z,20.42
2023-03-17T12:17:31.459Z,20.45
2023-03-17T12:18:30.950Z,20.51
2023-03-17T12:19:30.949Z,20.52
2023-03-17T12:20:31.556Z,20.54
2023-03-17T12:21:30.966Z,20.55
2023-03-17T12:22:30.965Z,20.58
2023-03-17T12:23:30.978Z,20.58
2023-03-17T12:24:31.003Z,20.65
2023-03-17T12:25:31.047Z,20.75
2023-03-17T12:26:31.043Z,20.83
2023-03-17T12:27:31.026Z,20.89
2023-03-17T12:28:31.041Z,20.83
2023-03-17T12:29:31.120Z,20.95
2023-03-17T12:30:31.546Z,20.95
2023-03-17T12:31:31.170Z,20.92
2023-03-17T12:32:31.098Z,21.06
2023-03-17T12:33:31.140Z,21.12
2023-03-17T12:34:31.114Z,21.07
2023-03-17T12:35:31.582Z,21.01
2023-03-17T12:36:31.192Z,21.09
2023-03-17T12:37:31.182Z,21.21
2023-03-17T12:38:31.183Z,21.18
2023-03-17T12:39:31.187Z,21.35
2023-03-17T12:40:31.514Z,21.22
2023-03-17T12:41:31.242Z,21.25
2023-03-17T12:42:31.256Z,21.30
2023-03-17T12:43:31.309Z,21.30
2023-03-17T12:44:31.273Z,21.27
2023-03-17T12:45:31.534Z,21.27
2023-03-17T12:46:31.355Z,21.26
2023-03-17T12:47:31.362Z,21.30
2023-03-17T12:48:31.391Z,21.30
2023-03-17T12:49:31.487Z,21.28
2023-03-17T12:50:31.513Z,21.25
2023-03-17T12:51:31.481Z,21.28
2023-03-17T12:52:31.550Z,21.26
2023-03-17T12:53:31.596Z,21.28
2023-03-17T12:54:31.546Z,21.32
2023-03-17T12:55:31.901Z,21.31
2023-03-17T12:56:31.669Z,21.28
2023-03-17T12:57:31.673Z,21.27
2023-03-17T12:58:31.717Z,21.24
2023-03-17T12:59:31.739Z,21.23
2023-03-17T13:00:31.786Z,21.27
2023-03-17T13:01:31.848Z,21.27
2023-03-17T13:02:31.861Z,21.27
2023-03-17T13:03:31.953Z,21.27
2023-03-17T13:04:31.939Z,21.35
2023-03-17T13:05:32.682Z,21.33
2023-03-17T13:06:32.029Z,21.30
2023-03-17T13:07:32.104Z,21.30
2023-03-17T13:08:32.127Z,21.33
2023-03-17T13:09:32.137Z,21.29
2023-03-17T13:10:32.199Z,21.33
2023-03-17T13:11:32.281Z,21.35
2023-03-17T13:12:32.289Z,21.29
2023-03-17T13:13:32.370Z,21.26
2023-03-17T13:14:32.401Z,21.32
2023-03-17T13:15:32.801Z,21.25
2023-03-17T13:16:32.575Z,21.35
2023-03-17T13:17:32.558Z,21.30
2023-03-17T13:18:32.596Z,21.35
2023-03-17T13:19:32.654Z,21.34
2023-03-17T13:20:32.722Z,21.25
2023-03-17T13:21:35.381Z,21.36
2023-03-17T13:22:32.754Z,21.31